CheckWX is a tool to help pilots better visualize weather data.  It is not intended as a substitute for an official pre-flight weather briefing.

23:37:58 UTC

RPLC METAR
Clark International Airport
Angeles City, Philippines
Current

38 mins ago

RPLC 212300Z 36002KT 8000 SCT020 BKN300 23/21 Q1017 NOSIG RMK A3006
Observed
Jan-21 @ 23:00 UTC
Wind
  • 360° at 2 KTS
Visibility
8,000 meters
Flight Rules
MVFR
Cloud Levels
  • Scattered at 2,000' AGL
  • Broken at 30,000' AGL
Temperature
23°C / 73°F
Dewpoint
21°C / 70°F
Humidity
89%
Altimeter
30.03" Hg
Pressure
1016.92 hPa
Previous

2 hours ago

RPLC 212200Z 32002KT 8000 SCT020 BKN100 23/19 Q1017 NOSIG RMK A3003
Observed
Jan-21 @ 22:00 UTC
Wind
  • 320° at 2 KTS
Visibility
8,000 meters
Flight Rules
MVFR
Cloud Levels
  • Scattered at 2,000' AGL
  • Broken at 10,000' AGL
Temperature
23°C / 73°F
Dewpoint
19°C / 66°F
Humidity
78%
Altimeter
30.03" Hg
Pressure
1016.92 hPa
Previous

3 hours ago

RPLC 212100Z 34004KT 8000 SCT020 BKN100 23/18 Q1017 NOSIG RMK A3003
Observed
Jan-21 @ 21:00 UTC
Wind
  • 340° at 4 KTS
Visibility
8,000 meters
Flight Rules
MVFR
Cloud Levels
  • Scattered at 2,000' AGL
  • Broken at 10,000' AGL
Temperature
23°C / 73°F
Dewpoint
18°C / 64°F
Humidity
74%
Altimeter
30.03" Hg
Pressure
1016.92 hPa